Time;durP1;ratioP1;P1;durP2;ratioP2;P2;SDS_P1;SDS_P2;PMS_P1;PMS_P2;Temp;Humidity;BMP_temperature;BMP_pressure;BME280_temperature;BME280_humidity;BME280_pressure;Samples;Min_cycle;Max_cycle;Signal;HPM_P1;HPM_P2
2022/08/08 00:00:09;;;;;;;1.63;1.33;;;19.90;48.80;;;;;;5051120;28;20470;-48
2022/08/08 00:03:21;;;;;;;1.77;1.67;;;19.80;49.00;;;;;;5053678;28;20467;-48
2022/08/08 00:06:17;;;;;;;1.60;1.27;;;19.80;49.20;;;;;;5054712;28;20918;-48
2022/08/08 00:09:07;;;;;;;1.50;1.23;;;19.70;49.30;;;;;;5058321;28;20539;-48
2022/08/08 00:11:40;;;;;;;2.60;1.20;;;19.70;49.30;;;;;;5044686;28;20580;-48
2022/08/08 00:14:40;;;;;;;1.43;1.10;;;19.60;49.00;;;;;;5052810;28;20442;-48
2022/08/08 00:17:56;;;;;;;2.00;1.00;;;19.60;49.00;;;;;;5035151;28;20534;-48
2022/08/08 00:20:51;;;;;;;2.40;1.13;;;19.60;48.90;;;;;;5054614;28;20502;-48
2022/08/08 00:23:51;;;;;;;1.00;0.90;;;19.50;49.20;;;;;;5059855;28;20470;-48
2022/08/08 00:26:31;;;;;;;1.20;1.13;;;19.50;49.10;;;;;;5034912;28;20969;-48
2022/08/08 00:29:11;;;;;;;1.07;0.90;;;19.40;49.00;;;;;;5051461;28;20464;-48
2022/08/08 00:31:48;;;;;;;0.90;0.90;;;19.40;49.30;;;;;;5053527;28;21003;-48
2022/08/08 00:35:10;;;;;;;1.80;1.23;;;19.40;49.30;;;;;;5036090;28;20470;-48
2022/08/08 00:38:06;;;;;;;1.20;1.10;;;19.40;49.50;;;;;;5045958;28;20546;-48
2022/08/08 00:41:21;;;;;;;1.50;0.80;;;19.30;49.70;;;;;;5050334;28;20573;-48
2022/08/08 00:44:17;;;;;;;1.07;0.97;;;19.30;49.50;;;;;;5060464;28;20467;-48
2022/08/08 00:46:50;;;;;;;0.80;0.80;;;19.30;49.70;;;;;;5073871;28;20538;-48
2022/08/08 00:50:02;;;;;;;1.77;1.10;;;19.30;49.90;;;;;;5057025;28;20512;-48
2022/08/08 00:53:05;;;;;;;1.10;1.10;;;19.20;49.90;;;;;;5056537;28;20481;-48
2022/08/08 00:56:19;;;;;;;1.90;0.70;;;19.20;50.00;;;;;;5056562;28;20976;-48
2022/08/08 00:59:20;;;;;;;3.00;1.30;;;19.20;49.70;;;;;;5063735;28;20481;-48
2022/08/08 01:02:33;;;;;;;1.37;1.10;;;19.10;50.00;;;;;;5061503;28;20453;-48
2022/08/08 01:05:50;;;;;;;1.73;0.83;;;19.10;50.30;;;;;;5060088;28;20500;-48
2022/08/08 01:09:04;;;;;;;1.73;0.83;;;19.00;50.40;;;;;;5060557;28;20873;-48
2022/08/08 01:12:06;;;;;;;1.10;1.07;;;19.10;50.50;;;;;;5076914;28;20482;-49
2022/08/08 01:14:59;;;;;;;1.47;1.30;;;19.00;50.40;;;;;;5057672;28;20497;-48
2022/08/08 01:18:02;;;;;;;0.87;0.80;;;19.00;50.60;;;;;;5073362;28;20899;-48
2022/08/08 01:20:56;;;;;;;0.90;0.90;;;19.00;50.80;;;;;;5044423;28;20989;-48
2022/08/08 01:23:41;;;;;;;0.90;0.90;;;19.00;50.80;;;;;;5043098;28;20454;-48
2022/08/08 01:26:40;;;;;;;0.90;0.90;;;18.90;50.90;;;;;;5060761;28;20502;-48
2022/08/08 01:29:30;;;;;;;1.80;1.00;;;18.90;51.10;;;;;;5043492;28;20497;-48
2022/08/08 01:32:28;;;;;;;1.57;1.17;;;18.80;51.30;;;;;;5057612;28;20539;-48
2022/08/08 01:35:15;;;;;;;0.93;0.83;;;18.80;51.40;;;;;;5060742;28;21109;-48
2022/08/08 01:38:07;;;;;;;1.17;1.03;;;18.80;51.40;;;;;;5055415;28;20489;-48
2022/08/08 01:41:10;;;;;;;0.97;0.87;;;18.70;51.50;;;;;;5052435;28;20537;-48
2022/08/08 01:44:22;;;;;;;1.50;1.40;;;18.70;51.60;;;;;;5060251;28;20462;-48
2022/08/08 01:47:06;;;;;;;1.10;1.10;;;18.70;51.70;;;;;;5060127;28;20470;-48
2022/08/08 01:50:08;;;;;;;1.27;1.10;;;18.60;51.90;;;;;;5060582;28;20449;-48
2022/08/08 01:52:51;;;;;;;2.50;1.03;;;18.60;51.90;;;;;;5059966;28;21158;-48
2022/08/08 01:56:18;;;;;;;1.17;1.07;;;18.50;52.00;;;;;;5056468;28;20461;-48
2022/08/08 01:59:07;;;;;;;1.93;1.10;;;18.50;52.20;;;;;;5055373;28;20543;-48
2022/08/08 02:01:48;;;;;;;1.63;1.30;;;18.40;52.30;;;;;;5044387;28;20469;-48
2022/08/08 02:05:00;;;;;;;1.20;1.10;;;18.40;52.30;;;;;;5044878;28;20486;-48
2022/08/08 02:08:15;;;;;;;1.87;1.33;;;18.40;52.60;;;;;;5040827;28;21036;-48
2022/08/08 02:11:07;;;;;;;0.83;0.83;;;18.30;52.70;;;;;;5041581;28;20470;-48
2022/08/08 02:14:04;;;;;;;2.03;1.13;;;18.40;52.60;;;;;;5043246;28;20504;-48
2022/08/08 02:16:51;;;;;;;1.43;1.10;;;18.40;52.40;;;;;;5057886;28;20513;-48
2022/08/08 02:19:35;;;;;;;1.37;1.00;;;18.30;52.50;;;;;;5074351;28;20464;-48
2022/08/08 02:22:53;;;;;;;2.20;1.30;;;18.30;52.70;;;;;;5042826;28;20449;-48
2022/08/08 02:25:34;;;;;;;0.90;0.90;;;18.30;52.90;;;;;;5061070;28;20463;-47
2022/08/08 02:28:22;;;;;;;1.57;0.90;;;18.30;52.90;;;;;;5048185;28;21096;-47
2022/08/08 02:31:27;;;;;;;1.30;1.00;;;18.30;52.90;;;;;;5057835;28;20548;-48
2022/08/08 02:34:27;;;;;;;1.60;1.20;;;18.30;53.00;;;;;;5048617;28;20462;-48
2022/08/08 02:37:23;;;;;;;1.47;1.00;;;18.20;52.90;;;;;;5054904;28;20491;-48
2022/08/08 02:40:42;;;;;;;1.40;1.30;;;18.20;53.10;;;;;;5052679;28;20450;-48
2022/08/08 02:44:09;;;;;;;1.60;1.50;;;18.20;53.20;;;;;;5042052;28;20547;-49
2022/08/08 02:47:26;;;;;;;1.50;1.37;;;18.10;53.20;;;;;;4998162;28;20717;-49
2022/08/08 02:50:12;;;;;;;1.23;1.13;;;18.00;53.30;;;;;;5056461;28;20461;-49
2022/08/08 02:52:53;;;;;;;1.10;1.10;;;18.00;53.60;;;;;;5044865;28;20485;-49
2022/08/08 02:55:45;;;;;;;2.30;1.87;;;18.00;53.50;;;;;;5056638;28;20496;-49
2022/08/08 02:58:42;;;;;;;1.30;1.20;;;17.90;53.80;;;;;;5059581;28;20493;-51
2022/08/08 03:01:36;;;;;;;1.80;0.80;;;17.90;53.90;;;;;;5057560;28;20462;-49
2022/08/08 03:04:37;;;;;;;1.10;0.97;;;17.90;53.50;;;;;;5056680;28;20987;-48
2022/08/08 03:07:47;;;;;;;1.20;1.10;;;17.90;53.90;;;;;;5055860;28;20466;-49
2022/08/08 03:11:08;;;;;;;1.00;0.97;;;17.90;53.40;;;;;;5044363;28;20548;-49
2022/08/08 03:14:08;;;;;;;0.90;0.90;;;17.80;53.90;;;;;;5042446;28;20462;-49
2022/08/08 03:17:09;;;;;;;1.20;1.10;;;17.80;54.00;;;;;;5054007;28;20470;-50
2022/08/08 03:20:06;;;;;;;2.40;1.17;;;17.80;54.00;;;;;;5046947;28;20461;-49
2022/08/08 03:22:46;;;;;;;2.70;1.27;;;17.80;54.00;;;;;;5056094;28;20874;-50
2022/08/08 03:25:14;;;;;;;1.13;1.03;;;17.70;54.20;;;;;;5045173;28;20757;-50
2022/08/08 03:27:58;;;;;;;1.37;1.00;;;17.70;54.30;;;;;;5061332;28;20459;-50
2022/08/08 03:30:26;;;;;;;1.40;1.30;;;17.70;54.40;;;;;;5056161;28;20485;-50
2022/08/08 03:35:59;;;;;;;1.47;1.00;;;17.70;54.60;;;;;;5058513;28;20462;-49
2022/08/08 03:38:27;;;;;;;1.37;1.27;;;17.70;54.50;;;;;;5039435;28;20490;-49
2022/08/08 03:41:13;;;;;;;1.30;1.20;;;17.70;54.70;;;;;;5053999;28;20457;-49
2022/08/08 03:44:00;;;;;;;0.83;0.83;;;17.60;54.90;;;;;;5068507;28;21043;-49
2022/08/08 03:46:28;;;;;;;1.63;1.00;;;17.60;54.90;;;;;;5050326;28;20489;-49
2022/08/08 03:48:59;;;;;;;0.87;0.87;;;17.60;54.90;;;;;;5038919;28;20469;-49
2022/08/08 03:51:50;;;;;;;1.17;1.17;;;17.60;55.00;;;;;;5046954;28;20490;-50
2022/08/08 03:54:18;;;;;;;1.20;1.10;;;17.60;55.20;;;;;;5044443;28;20500;-49
2022/08/08 03:57:10;;;;;;;2.07;1.37;;;17.50;55.20;;;;;;5058144;28;20552;-50
2022/08/08 03:59:57;;;;;;;2.20;1.10;;;17.50;55.30;;;;;;5055151;28;20850;-50
2022/08/08 04:02:37;;;;;;;1.40;1.30;;;17.50;55.30;;;;;;5040644;28;20883;-49
2022/08/08 04:05:18;;;;;;;1.20;1.10;;;17.50;55.20;;;;;;5054442;28;20461;-50
2022/08/08 04:07:55;;;;;;;1.10;1.00;;;17.50;55.30;;;;;;5039020;28;20469;-50
2022/08/08 04:10:24;;;;;;;1.87;1.50;;;17.50;55.40;;;;;;5056332;28;20479;-50
2022/08/08 04:12:58;;;;;;;2.30;1.27;;;17.50;55.40;;;;;;5054910;28;21053;-50
2022/08/08 04:15:25;;;;;;;1.50;1.40;;;17.50;55.40;;;;;;5055593;28;20457;-50
2022/08/08 04:18:04;;;;;;;1.30;1.20;;;17.40;55.40;;;;;;5042178;28;20909;-49
2022/08/08 04:20:31;;;;;;;1.10;1.10;;;17.50;55.60;;;;;;5070185;28;20489;-49
2022/08/08 04:22:57;;;;;;;2.40;1.23;;;17.40;55.50;;;;;;5040720;28;20835;-50
2022/08/08 04:25:29;;;;;;;1.30;1.20;;;17.40;55.60;;;;;;5042444;28;20463;-50
2022/08/08 04:28:04;;;;;;;1.53;1.00;;;17.40;55.60;;;;;;5053967;28;20484;-49
2022/08/08 04:30:51;;;;;;;1.97;1.53;;;17.40;55.70;;;;;;5039632;28;20461;-49
2022/08/08 04:33:23;;;;;;;1.63;1.40;;;17.40;55.80;;;;;;5048191;28;20596;-50
2022/08/08 04:35:52;;;;;;;1.37;1.27;;;17.40;55.80;;;;;;5040277;28;20459;-49
2022/08/08 04:38:21;;;;;;;1.90;1.67;;;17.40;55.90;;;;;;5052598;28;20461;-49
2022/08/08 04:40:50;;;;;;;1.50;1.27;;;17.40;55.90;;;;;;5050768;28;20498;-50
2022/08/08 04:43:21;;;;;;;3.10;1.70;;;17.40;56.00;;;;;;5050342;28;20541;-49
2022/08/08 04:45:58;;;;;;;1.77;1.60;;;17.40;56.10;;;;;;5039422;28;20474;-50
2022/08/08 04:48:24;;;;;;;2.30;1.27;;;17.40;56.20;;;;;;5056203;28;20544;-50
2022/08/08 04:50:52;;;;;;;1.57;1.20;;;17.50;56.30;;;;;;5044579;28;20951;-49
2022/08/08 04:53:19;;;;;;;1.27;1.03;;;17.50;56.30;;;;;;5034363;28;20535;-50
2022/08/08 04:56:06;;;;;;;1.87;1.43;;;17.50;56.30;;;;;;5051607;28;20481;-50
2022/08/08 04:58:33;;;;;;;1.70;1.47;;;17.50;56.40;;;;;;5050701;28;20478;-50
2022/08/08 05:01:00;;;;;;;1.17;1.10;;;17.50;56.30;;;;;;5049724;28;20843;-49
2022/08/08 05:03:36;;;;;;;1.83;1.67;;;17.50;56.40;;;;;;5052639;28;20466;-49
2022/08/08 05:06:23;;;;;;;1.40;1.30;;;17.50;56.60;;;;;;5046779;28;20449;-50
2022/08/08 05:08:55;;;;;;;2.10;1.43;;;17.60;56.80;;;;;;5056731;28;20462;-49
2022/08/08 05:11:28;;;;;;;1.40;1.30;;;17.60;56.90;;;;;;5060767;28;20449;-49
2022/08/08 05:14:04;;;;;;;2.43;1.60;;;17.70;57.00;;;;;;5053709;28;20523;-50
2022/08/08 05:16:32;;;;;;;1.50;1.30;;;17.70;57.20;;;;;;5055039;28;20481;-50
2022/08/08 05:19:19;;;;;;;2.13;1.43;;;17.70;57.00;;;;;;5040680;28;20516;-49
2022/08/08 05:22:07;;;;;;;2.13;1.93;;;17.80;57.00;;;;;;5057442;28;20462;-50
2022/08/08 05:24:36;;;;;;;1.37;1.27;;;17.80;57.00;;;;;;5052589;28;20535;-49
2022/08/08 05:27:04;;;;;;;1.33;1.17;;;17.80;57.00;;;;;;5057500;28;20467;-49
2022/08/08 05:29:32;;;;;;;1.83;1.40;;;17.90;57.20;;;;;;5049764;28;20454;-49
2022/08/08 05:32:03;;;;;;;2.60;1.10;;;18.00;57.30;;;;;;5052204;28;20667;-49
2022/08/08 05:34:33;;;;;;;1.80;1.27;;;18.00;57.30;;;;;;5053999;28;20859;-50
2022/08/08 05:37:04;;;;;;;4.67;1.57;;;18.00;57.60;;;;;;5058081;28;20446;-50
2022/08/08 05:39:49;;;;;;;2.70;1.30;;;18.10;57.60;;;;;;5070156;28;20510;-50
2022/08/08 05:42:21;;;;;;;2.17;1.43;;;18.20;57.70;;;;;;5047890;28;20892;-50
2022/08/08 05:44:52;;;;;;;1.80;1.40;;;18.20;57.70;;;;;;5061427;28;20456;-50
2022/08/08 05:47:21;;;;;;;5.97;1.70;;;18.30;57.60;;;;;;5047112;28;20465;-50
2022/08/08 05:49:47;;;;;;;1.93;1.30;;;18.40;57.70;;;;;;5057232;28;20458;-50
2022/08/08 05:52:22;;;;;;;2.30;1.10;;;18.50;57.90;;;;;;5055629;28;21006;-49
2022/08/08 05:55:04;;;;;;;4.00;1.40;;;18.50;57.60;;;;;;5046493;28;20447;-49
2022/08/08 05:57:37;;;;;;;2.70;1.57;;;18.60;57.50;;;;;;5059091;28;20510;-48
2022/08/08 06:00:30;;;;;;;4.43;1.37;;;18.70;56.40;;;;;;5050847;28;20497;-48
2022/08/08 06:03:10;;;;;;;5.50;2.47;;;18.80;55.30;;;;;;5071109;28;20480;-49
2022/08/08 06:06:06;;;;;;;1.83;1.50;;;19.00;54.60;;;;;;5043946;28;20463;-48
2022/08/08 06:08:43;;;;;;;1.47;1.10;;;19.10;54.00;;;;;;5041501;28;20965;-48
2022/08/08 06:11:21;;;;;;;1.67;1.03;;;19.20;54.00;;;;;;5043044;28;20471;-48
2022/08/08 06:13:53;;;;;;;4.50;1.50;;;19.30;53.70;;;;;;5062398;28;20498;-49
2022/08/08 06:16:20;;;;;;;2.47;1.33;;;19.50;53.50;;;;;;5064008;28;20466;-49
2022/08/08 06:18:59;;;;;;;1.50;0.97;;;19.60;53.60;;;;;;5046490;28;20559;-49
2022/08/08 06:21:28;;;;;;;1.37;1.23;;;19.70;53.80;;;;;;5056124;28;20449;-48
2022/08/08 06:24:15;;;;;;;1.40;1.30;;;19.80;52.60;;;;;;5044071;28;20872;-48
2022/08/08 06:27:05;;;;;;;4.03;1.20;;;20.00;52.40;;;;;;5046395;28;20458;-48
2022/08/08 06:29:58;;;;;;;1.00;1.00;;;20.10;51.90;;;;;;5058383;28;20548;-49
2022/08/08 06:32:29;;;;;;;1.37;1.27;;;20.30;51.30;;;;;;5039650;28;20504;-49
2022/08/08 06:35:02;;;;;;;1.10;1.10;;;20.40;50.30;;;;;;5052822;28;20974;-49
2022/08/08 06:38:04;;;;;;;1.87;1.57;;;20.60;50.20;;;;;;5048129;28;20459;-49
2022/08/08 06:40:42;;;;;;;2.73;1.10;;;20.70;49.50;;;;;;5026675;28;20476;-49
2022/08/08 06:43:21;;;;;;;1.57;1.37;;;20.90;48.90;;;;;;5062063;28;20471;-49
2022/08/08 06:46:00;;;;;;;1.87;0.90;;;21.00;48.60;;;;;;5040681;28;20472;-49
2022/08/08 06:48:28;;;;;;;5.33;1.20;;;21.20;48.30;;;;;;5040444;28;20461;-49
2022/08/08 06:50:56;;;;;;;1.40;1.17;;;21.30;47.90;;;;;;5058427;28;20462;-49
2022/08/08 06:53:24;;;;;;;2.73;1.53;;;21.50;47.50;;;;;;5076066;28;20492;-49
2022/08/08 06:56:07;;;;;;;2.10;1.10;;;21.60;46.90;;;;;;5051160;28;20468;-49
2022/08/08 06:58:34;;;;;;;2.23;1.17;;;21.80;46.90;;;;;;5042142;28;20486;-49
2022/08/08 07:01:07;;;;;;;2.37;1.77;;;21.90;46.30;;;;;;5061179;28;21363;-49
2022/08/08 07:04:02;;;;;;;5.90;1.67;;;22.00;46.50;;;;;;5045633;28;20457;-49
2022/08/08 07:06:54;;;;;;;1.33;1.10;;;22.20;45.90;;;;;;5056217;28;20862;-49
2022/08/08 07:09:36;;;;;;;1.67;1.57;;;22.30;44.90;;;;;;5043211;28;20473;-49
2022/08/08 07:12:37;;;;;;;4.57;1.07;;;22.40;44.80;;;;;;5055672;28;20453;-49
2022/08/08 07:15:06;;;;;;;1.67;1.07;;;22.60;44.50;;;;;;5060146;28;20511;-49
2022/08/08 07:17:56;;;;;;;1.43;1.17;;;22.80;44.20;;;;;;5043348;28;20453;-49
2022/08/08 07:20:47;;;;;;;1.60;1.10;;;22.90;44.00;;;;;;5041134;28;20516;-49
2022/08/08 07:23:26;;;;;;;4.00;1.27;;;23.00;43.60;;;;;;5056804;28;20454;-49
2022/08/08 07:26:17;;;;;;;2.70;1.00;;;23.10;43.60;;;;;;5049067;28;21008;-50
2022/08/08 07:28:55;;;;;;;2.00;1.30;;;23.30;43.50;;;;;;5059897;28;20881;-49
2022/08/08 07:31:22;;;;;;;3.20;1.43;;;23.40;43.30;;;;;;5040654;28;20456;-49
2022/08/08 07:33:51;;;;;;;1.67;1.23;;;23.50;43.40;;;;;;5044139;28;21246;-49
2022/08/08 07:36:25;;;;;;;2.90;1.33;;;23.70;43.30;;;;;;5058506;28;20478;-49
2022/08/08 07:38:57;;;;;;;1.57;1.10;;;23.80;43.10;;;;;;5059524;28;20467;-49
2022/08/08 07:41:29;;;;;;;1.53;1.07;;;24.00;43.20;;;;;;5059371;28;20437;-49
2022/08/08 07:44:17;;;;;;;2.60;0.90;;;24.10;43.30;;;;;;5058967;28;20454;-49
2022/08/08 07:47:04;;;;;;;2.00;1.03;;;24.30;42.90;;;;;;5077007;28;20975;-50
2022/08/08 07:49:31;;;;;;;3.70;1.40;;;24.50;42.10;;;;;;5029445;28;20482;-50
2022/08/08 07:52:00;;;;;;;1.20;1.00;;;24.60;41.80;;;;;;5056963;28;20442;-49
2022/08/08 07:54:34;;;;;;;4.47;1.10;;;24.70;41.20;;;;;;5052713;28;21025;-49
2022/08/08 07:57:34;;;;;;;2.13;1.30;;;24.80;40.60;;;;;;5055582;28;20484;-50
2022/08/08 08:00:08;;;;;;;1.37;0.80;;;25.00;40.20;;;;;;5055277;28;20882;-49
2022/08/08 08:02:59;;;;;;;5.13;1.53;;;25.20;39.80;;;;;;5042655;28;20869;-49
2022/08/08 08:05:28;;;;;;;3.23;1.20;;;25.40;39.30;;;;;;5038402;28;20465;-49
2022/08/08 08:08:19;;;;;;;1.97;0.90;;;25.50;38.80;;;;;;5057249;28;20453;-49
2022/08/08 08:10:51;;;;;;;2.90;1.10;;;25.70;38.10;;;;;;5073129;28;20478;-50
2022/08/08 08:13:44;;;;;;;4.30;1.30;;;25.80;37.70;;;;;;5048710;28;20517;-49
2022/08/08 08:16:38;;;;;;;1.90;1.00;;;25.90;37.40;;;;;;5056895;28;20449;-50
2022/08/08 08:19:11;;;;;;;1.67;1.17;;;26.00;38.10;;;;;;5061292;28;21234;-50
2022/08/08 08:21:43;;;;;;;1.50;0.70;;;26.10;37.70;;;;;;5046556;28;20444;-50
2022/08/08 08:24:26;;;;;;;4.00;1.10;;;26.30;37.40;;;;;;5058498;28;20457;-50
2022/08/08 08:27:01;;;;;;;1.03;1.00;;;26.40;37.40;;;;;;5057880;28;20468;-50
2022/08/08 08:29:29;;;;;;;0.80;0.80;;;26.50;37.30;;;;;;5055704;28;20448;-49
2022/08/08 08:31:56;;;;;;;1.93;1.37;;;26.60;36.90;;;;;;5056998;28;21005;-49
2022/08/08 08:34:29;;;;;;;1.03;0.80;;;26.70;37.00;;;;;;5072694;28;20563;-50
2022/08/08 08:36:58;;;;;;;1.70;1.10;;;26.80;36.50;;;;;;5075665;28;21108;-49
2022/08/08 08:39:25;;;;;;;2.50;1.17;;;26.90;36.50;;;;;;5058835;28;20464;-50
2022/08/08 08:42:15;;;;;;;1.30;1.10;;;26.90;36.20;;;;;;5057989;28;20491;-50
2022/08/08 08:44:59;;;;;;;1.70;1.07;;;26.90;36.20;;;;;;5058680;28;20567;-50
2022/08/08 08:47:28;;;;;;;1.80;1.20;;;27.00;36.40;;;;;;5044136;28;20511;-50
2022/08/08 08:50:10;;;;;;;2.60;1.13;;;27.20;36.10;;;;;;5058677;28;20461;-49
2022/08/08 08:53:00;;;;;;;2.40;1.27;;;27.20;36.10;;;;;;5045087;28;20489;-50
2022/08/08 08:55:48;;;;;;;1.40;1.20;;;27.30;36.20;;;;;;5041354;28;20453;-50
2022/08/08 08:58:34;;;;;;;1.37;1.00;;;27.50;36.10;;;;;;5060390;28;20470;-50
2022/08/08 09:01:04;;;;;;;1.17;1.07;;;27.60;35.90;;;;;;5056204;28;20760;-50
2022/08/08 09:03:40;;;;;;;1.10;1.10;;;27.70;35.40;;;;;;5056632;28;20988;-50
2022/08/08 09:06:24;;;;;;;1.33;1.17;;;27.80;35.30;;;;;;5058834;28;21084;-50
2022/08/08 09:09:07;;;;;;;2.07;1.30;;;27.90;35.00;;;;;;5044380;28;20453;-50
2022/08/08 09:11:54;;;;;;;1.77;1.00;;;28.00;34.30;;;;;;5053485;28;20507;-50
2022/08/08 09:14:33;;;;;;;4.30;1.07;;;28.10;34.50;;;;;;5046632;28;20945;-50
2022/08/08 09:17:00;;;;;;;2.80;0.90;;;28.20;34.50;;;;;;5045133;28;20434;-50
2022/08/08 09:19:38;;;;;;;1.77;1.20;;;28.30;33.90;;;;;;5059704;28;20210;-50
2022/08/08 09:22:25;;;;;;;3.00;1.17;;;28.30;34.10;;;;;;5050745;28;20682;-50
2022/08/08 09:24:54;;;;;;;2.50;1.03;;;28.30;34.00;;;;;;5060263;28;20207;-50
2022/08/08 09:27:22;;;;;;;2.93;1.10;;;28.40;34.30;;;;;;5050824;28;21194;-50
2022/08/08 09:30:13;;;;;;;2.83;0.90;;;28.60;34.10;;;;;;5037216;28;20238;-50
2022/08/08 09:32:48;;;;;;;1.07;0.93;;;28.70;34.00;;;;;;5071746;28;20210;-49
2022/08/08 09:35:37;;;;;;;1.17;1.07;;;28.70;33.20;;;;;;5057885;28;20200;-49
2022/08/08 09:38:26;;;;;;;1.33;1.00;;;28.70;33.30;;;;;;5061913;28;20253;-50
2022/08/08 09:41:01;;;;;;;0.80;0.80;;;28.90;33.30;;;;;;5060759;28;20412;-50
2022/08/08 09:43:29;;;;;;;2.30;0.90;;;29.00;33.20;;;;;;5063882;28;20211;-50
2022/08/08 09:46:20;;;;;;;1.90;1.13;;;29.20;33.30;;;;;;5061564;28;20209;-49
2022/08/08 09:48:57;;;;;;;1.20;1.00;;;29.30;33.20;;;;;;5044480;28;20211;-50
2022/08/08 09:51:53;;;;;;;0.93;0.90;;;29.30;32.70;;;;;;5056240;28;20577;-50
2022/08/08 09:54:43;;;;;;;1.23;0.80;;;29.30;32.60;;;;;;5055182;28;20317;-50
2022/08/08 09:57:17;;;;;;;1.20;1.10;;;29.50;32.80;;;;;;5048166;28;20215;-50
2022/08/08 09:59:55;;;;;;;1.25;1.02;;;29.60;32.60;;;;;;5046744;28;20580;-50
2022/08/08 10:02:44;;;;;;;1.23;1.10;;;29.70;32.20;;;;;;5053061;28;20204;-50
2022/08/08 10:05:16;;;;;;;4.35;1.10;;;29.80;32.10;;;;;;5056907;28;20218;-50
2022/08/08 10:07:51;;;;;;;1.27;1.00;;;30.00;32.00;;;;;;5042990;28;20773;-50
2022/08/08 10:10:31;;;;;;;3.60;1.00;;;30.00;31.70;;;;;;5047171;28;20202;-50
2022/08/08 10:13:19;;;;;;;1.15;1.00;;;30.00;31.80;;;;;;5047148;28;20684;-50
2022/08/08 10:16:00;;;;;;;1.80;0.80;;;30.10;31.80;;;;;;5058377;28;20207;-50
2022/08/08 10:18:32;;;;;;;2.78;0.93;;;30.20;31.40;;;;;;5051083;28;20248;-50
2022/08/08 10:21:07;;;;;;;2.35;0.80;;;30.40;31.50;;;;;;5041660;28;20200;-50
2022/08/08 10:24:01;;;;;;;1.05;0.95;;;30.50;30.90;;;;;;5053415;28;20210;-50
2022/08/08 10:26:39;;;;;;;1.95;0.98;;;30.60;30.30;;;;;;5048774;28;20202;-50
2022/08/08 10:29:46;;;;;;;1.15;0.90;;;30.60;29.70;;;;;;5047065;28;20213;-50
2022/08/08 10:32:31;;;;;;;1.50;1.15;;;30.70;29.80;;;;;;5061672;28;20218;-50
2022/08/08 10:35:03;;;;;;;3.05;1.00;;;30.70;29.70;;;;;;5064471;28;20230;-50
2022/08/08 10:37:40;;;;;;;2.03;0.95;;;30.70;30.00;;;;;;5064898;28;20229;-50
2022/08/08 10:40:13;;;;;;;1.13;0.85;;;30.40;29.30;;;;;;5046054;28;20916;-50
2022/08/08 10:42:46;;;;;;;1.60;0.75;;;30.30;29.70;;;;;;5059272;28;20202;-50
2022/08/08 10:45:13;;;;;;;1.55;1.08;;;30.20;30.00;;;;;;5047708;28;20288;-50
2022/08/08 10:47:43;;;;;;;2.15;0.93;;;30.10;30.00;;;;;;5057997;28;20667;-50
2022/08/08 10:50:19;;;;;;;3.22;1.08;;;29.90;30.20;;;;;;5057286;28;20211;-50
2022/08/08 10:52:49;;;;;;;1.70;1.05;;;29.80;30.20;;;;;;5056650;28;20205;-50
2022/08/08 10:55:18;;;;;;;2.40;1.20;;;29.80;30.60;;;;;;5056827;28;20573;-50
2022/08/08 10:58:07;;;;;;;0.88;0.88;;;29.70;30.50;;;;;;5062167;28;20761;-50
2022/08/08 11:00:34;;;;;;;1.17;1.13;;;29.60;30.60;;;;;;5058238;28;20195;-50
2022/08/08 11:03:21;;;;;;;1.10;1.00;;;29.50;30.60;;;;;;5049776;28;20203;-50
2022/08/08 11:06:08;;;;;;;1.30;0.80;;;29.60;30.60;;;;;;5059682;28;20214;-50
2022/08/08 11:08:40;;;;;;;2.17;1.00;;;29.60;31.10;;;;;;5057078;28;20325;-50
2022/08/08 11:11:19;;;;;;;1.50;1.00;;;29.50;30.80;;;;;;5065242;28;20207;-50
2022/08/08 11:14:08;;;;;;;1.08;0.80;;;29.50;31.00;;;;;;5038080;28;20226;-50
2022/08/08 11:16:44;;;;;;;0.80;0.80;;;29.40;31.50;;;;;;5060446;28;20198;-50
2022/08/08 11:19:13;;;;;;;1.90;1.17;;;29.30;31.40;;;;;;5056913;28;20706;-50
2022/08/08 11:21:44;;;;;;;2.63;1.60;;;29.20;31.40;;;;;;5059001;28;20215;-50
2022/08/08 11:24:25;;;;;;;1.90;0.90;;;29.10;31.60;;;;;;5037010;28;20211;-50
2022/08/08 11:26:56;;;;;;;0.87;0.87;;;28.80;31.30;;;;;;5058240;28;20700;-50
2022/08/08 11:29:26;;;;;;;1.10;0.90;;;28.80;31.80;;;;;;5058609;28;20211;-50
2022/08/08 11:32:14;;;;;;;1.00;1.00;;;28.70;32.00;;;;;;5047123;28;20221;-50
2022/08/08 11:34:45;;;;;;;1.13;1.00;;;28.70;32.40;;;;;;5055213;28;20223;-49
2022/08/08 11:37:33;;;;;;;2.70;0.90;;;28.60;32.20;;;;;;5057214;28;20558;-50
2022/08/08 11:40:20;;;;;;;0.80;0.80;;;28.60;32.00;;;;;;5059659;28;20593;-49
2022/08/08 11:42:52;;;;;;;1.10;1.10;;;28.60;32.30;;;;;;5041513;28;20242;-50
2022/08/08 11:45:21;;;;;;;1.40;1.30;;;28.60;32.30;;;;;;5060986;28;20202;-49
2022/08/08 11:47:49;;;;;;;2.20;0.80;;;28.40;31.90;;;;;;5048734;28;20207;-50
2022/08/08 11:50:32;;;;;;;3.43;1.03;;;28.50;32.20;;;;;;5056457;28;20392;-49
2022/08/08 11:53:01;;;;;;;0.90;0.90;;;28.50;32.00;;;;;;5058657;28;20367;-49
2022/08/08 11:55:34;;;;;;;0.80;0.80;;;28.50;32.40;;;;;;5059023;28;20222;-49
2022/08/08 11:58:07;;;;;;;1.17;0.87;;;28.50;32.50;;;;;;5047693;28;20231;-49
2022/08/08 12:00:49;;;;;;;1.23;1.13;;;28.40;32.20;;;;;;5060665;28;20472;-49
2022/08/08 12:03:18;;;;;;;2.70;1.37;;;28.40;32.60;;;;;;5050086;28;20659;-50
2022/08/08 12:05:47;;;;;;;1.30;1.20;;;28.30;32.50;;;;;;5060725;28;20466;-50
2022/08/08 12:08:15;;;;;;;1.00;1.00;;;28.30;32.70;;;;;;5058064;28;20297;-49
2022/08/08 12:10:51;;;;;;;1.00;1.00;;;28.30;32.70;;;;;;5075995;28;20214;-49
2022/08/08 12:13:23;;;;;;;1.03;1.03;;;28.30;32.60;;;;;;5048158;28;20302;-49
2022/08/08 12:16:12;;;;;;;1.47;1.00;;;28.30;32.80;;;;;;5060949;28;20206;-49
2022/08/08 12:18:54;;;;;;;1.23;1.13;;;28.30;32.60;;;;;;5038645;28;20610;-50
2022/08/08 12:21:26;;;;;;;0.77;0.77;;;28.30;32.50;;;;;;5045588;28;20214;-50
2022/08/08 12:24:15;;;;;;;1.17;0.80;;;28.30;32.60;;;;;;5059761;28;20215;-49
2022/08/08 12:26:46;;;;;;;1.00;1.00;;;28.30;32.90;;;;;;5057333;28;20211;-50
2022/08/08 12:29:21;;;;;;;8.17;1.40;;;28.30;32.80;;;;;;5040009;28;20892;-49
2022/08/08 12:32:13;;;;;;;1.13;1.00;;;28.30;32.60;;;;;;5057557;28;20203;-49
2022/08/08 12:34:57;;;;;;;2.20;1.10;;;28.40;32.30;;;;;;5046799;28;20235;-50
2022/08/08 12:37:44;;;;;;;1.43;0.80;;;28.40;32.60;;;;;;5055689;28;20199;-50
2022/08/08 12:40:42;;;;;;;2.23;1.20;;;28.40;32.90;;;;;;5056945;28;20301;-50
2022/08/08 12:43:34;;;;;;;1.87;1.17;;;28.40;32.80;;;;;;5028628;28;20643;-50
2022/08/08 12:46:21;;;;;;;2.20;1.43;;;28.40;32.50;;;;;;5057858;28;20217;-50
2022/08/08 12:48:57;;;;;;;1.10;1.00;;;28.50;32.60;;;;;;5054942;28;20294;-49
2022/08/08 12:51:49;;;;;;;2.47;1.00;;;28.50;32.30;;;;;;5053570;28;20211;-50
2022/08/08 12:54:31;;;;;;;1.60;0.87;;;28.50;32.70;;;;;;5061749;28;20219;-50
2022/08/08 12:57:31;;;;;;;1.10;1.00;;;28.50;32.60;;;;;;5060591;28;20225;-49
2022/08/08 13:00:27;;;;;;;1.00;0.90;;;28.50;32.30;;;;;;5045178;28;20207;-49
2022/08/08 13:03:05;;;;;;;4.27;1.03;;;28.50;32.30;;;;;;5064026;28;20199;-49
2022/08/08 13:05:33;;;;;;;1.53;1.07;;;28.40;32.30;;;;;;5050238;28;20686;-49
2022/08/08 13:08:20;;;;;;;0.80;0.70;;;28.40;32.30;;;;;;5059945;28;20464;-50
2022/08/08 13:10:52;;;;;;;0.90;0.90;;;28.40;32.40;;;;;;5062276;28;20265;-50
2022/08/08 13:13:31;;;;;;;1.10;1.00;;;28.40;32.60;;;;;;5060406;28;20298;-49
2022/08/08 13:16:18;;;;;;;1.30;1.20;;;28.50;32.70;;;;;;5054433;28;20249;-49
2022/08/08 13:18:46;;;;;;;1.00;1.00;;;28.50;32.70;;;;;;5033688;28;20204;-50
2022/08/08 13:21:26;;;;;;;1.10;1.10;;;28.50;32.60;;;;;;5052604;28;20199;-50
2022/08/08 13:24:13;;;;;;;1.73;1.63;;;28.50;32.50;;;;;;5060757;28;20271;-50
2022/08/08 13:27:08;;;;;;;1.20;1.20;;;28.50;32.20;;;;;;5065145;28;20222;-49
2022/08/08 13:29:48;;;;;;;1.00;0.90;;;28.50;32.30;;;;;;5062121;28;20264;-50
2022/08/08 13:32:16;;;;;;;1.70;1.30;;;28.50;32.20;;;;;;5061654;28;20215;-49
2022/08/08 13:34:51;;;;;;;1.33;0.80;;;28.60;32.00;;;;;;5063070;28;20254;-50
2022/08/08 13:37:19;;;;;;;1.67;0.80;;;28.60;32.20;;;;;;5063271;28;20696;-49
2022/08/08 13:40:06;;;;;;;1.50;1.07;;;28.60;32.30;;;;;;5060402;28;20226;-50
2022/08/08 13:42:33;;;;;;;1.40;1.30;;;28.70;32.40;;;;;;5061965;28;20202;-50
2022/08/08 13:45:01;;;;;;;1.30;0.83;;;28.70;32.70;;;;;;5061683;28;20247;-50
2022/08/08 13:47:33;;;;;;;2.30;1.10;;;28.70;32.50;;;;;;5059939;28;20207;-50
2022/08/08 13:50:08;;;;;;;0.80;0.80;;;28.70;32.50;;;;;;5056944;28;20294;-50
2022/08/08 13:52:54;;;;;;;1.40;1.00;;;28.70;32.60;;;;;;5048306;28;20732;-49
2022/08/08 13:55:25;;;;;;;1.00;0.83;;;28.70;32.50;;;;;;5079803;28;20234;-50
2022/08/08 13:58:02;;;;;;;1.00;1.00;;;28.80;32.30;;;;;;5057621;28;20234;-49
2022/08/08 14:00:40;;;;;;;1.10;1.00;;;28.90;32.10;;;;;;5048206;28;20292;-50
2022/08/08 14:03:11;;;;;;;3.53;1.00;;;28.90;32.10;;;;;;5061242;28;20214;-50
2022/08/08 14:06:10;;;;;;;1.27;1.20;;;28.90;32.10;;;;;;5058783;28;20220;-50
2022/08/08 14:08:57;;;;;;;2.10;0.97;;;29.00;32.50;;;;;;5059218;28;20215;-50